sensor_id;sensor_type;location;lat;lon;timestamp;P1;durP1;ratioP1;P2;durP2;ratioP2
69319;SDS011;56467;53.502;49.248;2022-12-18T00:00:06;15.18;;;9.05;;
69319;SDS011;56467;53.502;49.248;2022-12-18T00:02:32;14.18;;;8.60;;
69319;SDS011;56467;53.502;49.248;2022-12-18T00:04:58;14.38;;;8.73;;
69319;SDS011;56467;53.502;49.248;2022-12-18T00:07:24;14.05;;;8.27;;
69319;SDS011;56467;53.502;49.248;2022-12-18T00:09:50;15.75;;;8.85;;
69319;SDS011;56467;53.502;49.248;2022-12-18T00:12:15;14.70;;;8.32;;
69319;SDS011;56467;53.502;49.248;2022-12-18T00:14:41;15.00;;;8.65;;
69319;SDS011;56467;53.502;49.248;2022-12-18T00:17:07;15.35;;;8.70;;
69319;SDS011;56467;53.502;49.248;2022-12-18T00:19:33;14.73;;;8.50;;
69319;SDS011;56467;53.502;49.248;2022-12-18T00:21:58;14.18;;;8.05;;
69319;SDS011;56467;53.502;49.248;2022-12-18T00:24:24;13.93;;;8.18;;
69319;SDS011;56467;53.502;49.248;2022-12-18T00:26:50;14.15;;;7.88;;
69319;SDS011;56467;53.502;49.248;2022-12-18T00:29:16;15.15;;;8.15;;
69319;SDS011;56467;53.502;49.248;2022-12-18T00:31:42;15.18;;;8.63;;
69319;SDS011;56467;53.502;49.248;2022-12-18T00:34:09;12.25;;;7.70;;
69319;SDS011;56467;53.502;49.248;2022-12-18T00:36:37;13.95;;;8.45;;
69319;SDS011;56467;53.502;49.248;2022-12-18T00:39:03;13.15;;;7.97;;
69319;SDS011;56467;53.502;49.248;2022-12-18T00:41:30;13.82;;;7.95;;
69319;SDS011;56467;53.502;49.248;2022-12-18T00:44:15;12.77;;;8.00;;
69319;SDS011;56467;53.502;49.248;2022-12-18T00:46:42;12.80;;;7.68;;
69319;SDS011;56467;53.502;49.248;2022-12-18T00:49:08;14.32;;;8.23;;
69319;SDS011;56467;53.502;49.248;2022-12-18T00:51:34;12.45;;;7.45;;
69319;SDS011;56467;53.502;49.248;2022-12-18T00:54:00;12.40;;;7.70;;
69319;SDS011;56467;53.502;49.248;2022-12-18T00:56:27;13.18;;;7.60;;
69319;SDS011;56467;53.502;49.248;2022-12-18T00:58:53;13.65;;;7.85;;
69319;SDS011;56467;53.502;49.248;2022-12-18T01:01:19;13.88;;;7.38;;
69319;SDS011;56467;53.502;49.248;2022-12-18T01:03:45;12.82;;;7.68;;
69319;SDS011;56467;53.502;49.248;2022-12-18T01:06:12;14.50;;;7.68;;
69319;SDS011;56467;53.502;49.248;2022-12-18T01:08:38;13.70;;;7.20;;
69319;SDS011;56467;53.502;49.248;2022-12-18T01:11:11;12.57;;;7.40;;
69319;SDS011;56467;53.502;49.248;2022-12-18T01:13:39;11.90;;;7.20;;
69319;SDS011;56467;53.502;49.248;2022-12-18T01:16:05;12.93;;;7.10;;
69319;SDS011;56467;53.502;49.248;2022-12-18T01:18:32;11.45;;;7.53;;
69319;SDS011;56467;53.502;49.248;2022-12-18T01:20:57;13.10;;;7.57;;
69319;SDS011;56467;53.502;49.248;2022-12-18T01:23:26;14.30;;;7.22;;
69319;SDS011;56467;53.502;49.248;2022-12-18T01:25:52;10.60;;;6.60;;
69319;SDS011;56467;53.502;49.248;2022-12-18T01:28:18;12.45;;;7.00;;
69319;SDS011;56467;53.502;49.248;2022-12-18T01:30:44;11.27;;;7.22;;
69319;SDS011;56467;53.502;49.248;2022-12-18T01:33:09;11.50;;;6.95;;
69319;SDS011;56467;53.502;49.248;2022-12-18T01:35:39;11.60;;;6.88;;
69319;SDS011;56467;53.502;49.248;2022-12-18T01:38:08;12.13;;;6.63;;
69319;SDS011;56467;53.502;49.248;2022-12-18T01:40:35;12.15;;;7.35;;
69319;SDS011;56467;53.502;49.248;2022-12-18T01:43:01;10.30;;;6.57;;
69319;SDS011;56467;53.502;49.248;2022-12-18T01:45:28;10.50;;;6.40;;
69319;SDS011;56467;53.502;49.248;2022-12-18T01:55:32;11.82;;;6.50;;
69319;SDS011;56467;53.502;49.248;2022-12-18T01:58:03;11.18;;;6.63;;
69319;SDS011;56467;53.502;49.248;2022-12-18T02:00:29;10.05;;;6.40;;
69319;SDS011;56467;53.502;49.248;2022-12-18T02:02:55;10.60;;;6.60;;
69319;SDS011;56467;53.502;49.248;2022-12-18T02:08:09;11.23;;;6.40;;
69319;SDS011;56467;53.502;49.248;2022-12-18T02:19:15;12.07;;;6.60;;
69319;SDS011;56467;53.502;49.248;2022-12-18T02:21:51;10.57;;;6.00;;
69319;SDS011;56467;53.502;49.248;2022-12-18T02:24:47;9.43;;;5.93;;
69319;SDS011;56467;53.502;49.248;2022-12-18T02:27:24;10.30;;;5.72;;
69319;SDS011;56467;53.502;49.248;2022-12-18T02:29:51;9.95;;;5.90;;
69319;SDS011;56467;53.502;49.248;2022-12-18T02:32:22;10.00;;;6.13;;
69319;SDS011;56467;53.502;49.248;2022-12-18T02:34:59;9.07;;;5.82;;
69319;SDS011;56467;53.502;49.248;2022-12-18T02:37:27;9.43;;;6.05;;
69319;SDS011;56467;53.502;49.248;2022-12-18T02:39:55;9.70;;;5.97;;
69319;SDS011;56467;53.502;49.248;2022-12-18T02:42:23;9.23;;;5.68;;
69319;SDS011;56467;53.502;49.248;2022-12-18T02:44:50;9.55;;;5.78;;
69319;SDS011;56467;53.502;49.248;2022-12-18T02:47:17;8.57;;;5.05;;
69319;SDS011;56467;53.502;49.248;2022-12-18T02:55:00;8.43;;;5.40;;
69319;SDS011;56467;53.502;49.248;2022-12-18T02:57:49;9.32;;;5.50;;
69319;SDS011;56467;53.502;49.248;2022-12-18T03:00:42;8.73;;;5.50;;
69319;SDS011;56467;53.502;49.248;2022-12-18T03:03:40;10.07;;;5.50;;
69319;SDS011;56467;53.502;49.248;2022-12-18T03:06:38;9.35;;;5.40;;
69319;SDS011;56467;53.502;49.248;2022-12-18T03:09:12;8.35;;;5.35;;
69319;SDS011;56467;53.502;49.248;2022-12-18T03:11:45;10.23;;;5.50;;
69319;SDS011;56467;53.502;49.248;2022-12-18T03:14:33;9.13;;;5.60;;
69319;SDS011;56467;53.502;49.248;2022-12-18T03:17:03;8.35;;;4.78;;
69319;SDS011;56467;53.502;49.248;2022-12-18T03:19:32;8.95;;;5.10;;
69319;SDS011;56467;53.502;49.248;2022-12-18T03:22:00;9.18;;;5.40;;
69319;SDS011;56467;53.502;49.248;2022-12-18T03:24:28;8.75;;;5.05;;
69319;SDS011;56467;53.502;49.248;2022-12-18T03:26:57;7.15;;;4.63;;
69319;SDS011;56467;53.502;49.248;2022-12-18T03:29:29;8.32;;;5.13;;
69319;SDS011;56467;53.502;49.248;2022-12-18T03:35:23;7.93;;;5.13;;
69319;SDS011;56467;53.502;49.248;2022-12-18T03:37:53;7.90;;;4.78;;
69319;SDS011;56467;53.502;49.248;2022-12-18T03:40:24;8.55;;;4.95;;
69319;SDS011;56467;53.502;49.248;2022-12-18T03:42:58;8.50;;;4.72;;
69319;SDS011;56467;53.502;49.248;2022-12-18T03:45:37;7.93;;;4.47;;
69319;SDS011;56467;53.502;49.248;2022-12-18T03:48:18;7.88;;;4.57;;
69319;SDS011;56467;53.502;49.248;2022-12-18T03:50:54;8.40;;;4.82;;
69319;SDS011;56467;53.502;49.248;2022-12-18T03:56:03;7.80;;;4.43;;
69319;SDS011;56467;53.502;49.248;2022-12-18T03:58:31;7.07;;;4.72;;
69319;SDS011;56467;53.502;49.248;2022-12-18T04:01:01;7.57;;;4.50;;
69319;SDS011;56467;53.502;49.248;2022-12-18T04:03:31;7.00;;;4.40;;
69319;SDS011;56467;53.502;49.248;2022-12-18T04:05:59;6.80;;;4.72;;
69319;SDS011;56467;53.502;49.248;2022-12-18T04:08:26;6.63;;;4.03;;
69319;SDS011;56467;53.502;49.248;2022-12-18T04:10:52;6.50;;;4.25;;
69319;SDS011;56467;53.502;49.248;2022-12-18T04:13:27;7.00;;;4.22;;
69319;SDS011;56467;53.502;49.248;2022-12-18T04:15:57;6.28;;;4.20;;
69319;SDS011;56467;53.502;49.248;2022-12-18T04:18:22;6.93;;;4.25;;
69319;SDS011;56467;53.502;49.248;2022-12-18T04:20:48;6.60;;;4.20;;
69319;SDS011;56467;53.502;49.248;2022-12-18T04:23:14;6.35;;;4.03;;
69319;SDS011;56467;53.502;49.248;2022-12-18T04:25:39;6.40;;;3.97;;
69319;SDS011;56467;53.502;49.248;2022-12-18T04:28:05;6.47;;;4.25;;
69319;SDS011;56467;53.502;49.248;2022-12-18T04:30:31;6.53;;;4.03;;
69319;SDS011;56467;53.502;49.248;2022-12-18T04:32:57;6.20;;;4.25;;
69319;SDS011;56467;53.502;49.248;2022-12-18T04:35:23;6.00;;;3.70;;
69319;SDS011;56467;53.502;49.248;2022-12-18T04:37:48;5.28;;;3.55;;
69319;SDS011;56467;53.502;49.248;2022-12-18T04:40:14;5.97;;;4.10;;
69319;SDS011;56467;53.502;49.248;2022-12-18T04:42:40;6.15;;;3.80;;
69319;SDS011;56467;53.502;49.248;2022-12-18T04:45:06;5.75;;;3.75;;
69319;SDS011;56467;53.502;49.248;2022-12-18T04:47:32;6.63;;;3.80;;
69319;SDS011;56467;53.502;49.248;2022-12-18T04:49:58;5.03;;;3.50;;
69319;SDS011;56467;53.502;49.248;2022-12-18T04:52:24;5.35;;;3.45;;
69319;SDS011;56467;53.502;49.248;2022-12-18T04:54:50;4.63;;;3.40;;
69319;SDS011;56467;53.502;49.248;2022-12-18T04:57:16;5.07;;;3.53;;
69319;SDS011;56467;53.502;49.248;2022-12-18T04:59:43;5.63;;;3.45;;
69319;SDS011;56467;53.502;49.248;2022-12-18T05:02:09;4.93;;;3.30;;
69319;SDS011;56467;53.502;49.248;2022-12-18T05:04:35;6.30;;;3.60;;
69319;SDS011;56467;53.502;49.248;2022-12-18T05:07:01;5.35;;;3.40;;
69319;SDS011;56467;53.502;49.248;2022-12-18T05:09:27;4.72;;;3.10;;
69319;SDS011;56467;53.502;49.248;2022-12-18T05:11:52;5.20;;;3.20;;
69319;SDS011;56467;53.502;49.248;2022-12-18T05:14:18;5.07;;;3.33;;
69319;SDS011;56467;53.502;49.248;2022-12-18T05:16:44;4.70;;;3.30;;
69319;SDS011;56467;53.502;49.248;2022-12-18T05:19:10;4.40;;;2.83;;
69319;SDS011;56467;53.502;49.248;2022-12-18T05:21:36;4.15;;;3.03;;
69319;SDS011;56467;53.502;49.248;2022-12-18T05:24:02;3.50;;;2.60;;
69319;SDS011;56467;53.502;49.248;2022-12-18T05:26:27;4.25;;;2.88;;
69319;SDS011;56467;53.502;49.248;2022-12-18T05:28:56;4.93;;;2.90;;
69319;SDS011;56467;53.502;49.248;2022-12-18T05:31:22;3.95;;;2.75;;
69319;SDS011;56467;53.502;49.248;2022-12-18T05:33:48;3.90;;;2.80;;
69319;SDS011;56467;53.502;49.248;2022-12-18T05:36:13;3.45;;;2.60;;
69319;SDS011;56467;53.502;49.248;2022-12-18T05:38:39;4.60;;;2.80;;
69319;SDS011;56467;53.502;49.248;2022-12-18T05:41:05;4.28;;;2.95;;
69319;SDS011;56467;53.502;49.248;2022-12-18T05:43:33;3.63;;;2.55;;
69319;SDS011;56467;53.502;49.248;2022-12-18T05:46:03;3.85;;;2.60;;
69319;SDS011;56467;53.502;49.248;2022-12-18T05:48:30;4.38;;;2.67;;
69319;SDS011;56467;53.502;49.248;2022-12-18T05:50:56;4.18;;;2.70;;
69319;SDS011;56467;53.502;49.248;2022-12-18T05:53:29;3.55;;;2.60;;
69319;SDS011;56467;53.502;49.248;2022-12-18T05:55:59;4.40;;;2.63;;
69319;SDS011;56467;53.502;49.248;2022-12-18T05:58:25;3.83;;;2.60;;
69319;SDS011;56467;53.502;49.248;2022-12-18T06:00:51;4.55;;;2.90;;
69319;SDS011;56467;53.502;49.248;2022-12-18T06:03:17;3.42;;;2.50;;
69319;SDS011;56467;53.502;49.248;2022-12-18T06:05:43;4.10;;;2.70;;
69319;SDS011;56467;53.502;49.248;2022-12-18T06:08:10;4.70;;;2.60;;
69319;SDS011;56467;53.502;49.248;2022-12-18T06:10:37;4.10;;;2.60;;
69319;SDS011;56467;53.502;49.248;2022-12-18T06:13:04;4.05;;;2.67;;
69319;SDS011;56467;53.502;49.248;2022-12-18T06:15:29;3.40;;;2.60;;
69319;SDS011;56467;53.502;49.248;2022-12-18T06:17:55;3.70;;;2.75;;
69319;SDS011;56467;53.502;49.248;2022-12-18T06:20:21;4.03;;;2.80;;
69319;SDS011;56467;53.502;49.248;2022-12-18T06:22:47;5.22;;;3.00;;
69319;SDS011;56467;53.502;49.248;2022-12-18T06:25:13;4.38;;;2.78;;
69319;SDS011;56467;53.502;49.248;2022-12-18T06:27:38;4.80;;;2.97;;
69319;SDS011;56467;53.502;49.248;2022-12-18T06:30:05;5.18;;;3.17;;
69319;SDS011;56467;53.502;49.248;2022-12-18T06:32:31;4.20;;;2.92;;
69319;SDS011;56467;53.502;49.248;2022-12-18T06:34:57;5.00;;;3.22;;
69319;SDS011;56467;53.502;49.248;2022-12-18T06:37:23;5.55;;;3.25;;
69319;SDS011;56467;53.502;49.248;2022-12-18T06:39:54;4.60;;;3.22;;
69319;SDS011;56467;53.502;49.248;2022-12-18T06:42:21;4.78;;;3.00;;
69319;SDS011;56467;53.502;49.248;2022-12-18T06:44:48;6.10;;;3.35;;
69319;SDS011;56467;53.502;49.248;2022-12-18T06:47:13;6.88;;;3.55;;
69319;SDS011;56467;53.502;49.248;2022-12-18T06:49:39;5.55;;;3.15;;
69319;SDS011;56467;53.502;49.248;2022-12-18T06:52:05;4.45;;;3.30;;
69319;SDS011;56467;53.502;49.248;2022-12-18T06:54:31;5.28;;;3.22;;
69319;SDS011;56467;53.502;49.248;2022-12-18T06:56:56;5.45;;;3.40;;
69319;SDS011;56467;53.502;49.248;2022-12-18T06:59:22;6.90;;;3.40;;
69319;SDS011;56467;53.502;49.248;2022-12-18T07:01:48;5.20;;;3.38;;
69319;SDS011;56467;53.502;49.248;2022-12-18T07:04:13;6.10;;;3.53;;
69319;SDS011;56467;53.502;49.248;2022-12-18T07:06:39;5.28;;;3.35;;
69319;SDS011;56467;53.502;49.248;2022-12-18T07:09:05;6.15;;;3.58;;
69319;SDS011;56467;53.502;49.248;2022-12-18T07:11:32;6.05;;;3.65;;
69319;SDS011;56467;53.502;49.248;2022-12-18T07:13:59;7.13;;;3.72;;
69319;SDS011;56467;53.502;49.248;2022-12-18T07:16:25;5.95;;;3.30;;
69319;SDS011;56467;53.502;49.248;2022-12-18T07:18:54;4.88;;;3.38;;
69319;SDS011;56467;53.502;49.248;2022-12-18T07:21:21;7.10;;;3.75;;
69319;SDS011;56467;53.502;49.248;2022-12-18T07:23:48;6.15;;;3.88;;
69319;SDS011;56467;53.502;49.248;2022-12-18T07:26:14;6.30;;;3.60;;
69319;SDS011;56467;53.502;49.248;2022-12-18T07:28:42;7.00;;;4.10;;
69319;SDS011;56467;53.502;49.248;2022-12-18T07:31:13;6.72;;;3.90;;
69319;SDS011;56467;53.502;49.248;2022-12-18T07:33:40;6.38;;;4.15;;
69319;SDS011;56467;53.502;49.248;2022-12-18T07:36:06;6.65;;;4.20;;
69319;SDS011;56467;53.502;49.248;2022-12-18T07:38:33;6.60;;;3.85;;
69319;SDS011;56467;53.502;49.248;2022-12-18T07:41:03;7.85;;;3.90;;
69319;SDS011;56467;53.502;49.248;2022-12-18T07:43:31;6.30;;;3.97;;
69319;SDS011;56467;53.502;49.248;2022-12-18T07:45:57;8.30;;;4.50;;
69319;SDS011;56467;53.502;49.248;2022-12-18T07:48:23;7.00;;;4.03;;
69319;SDS011;56467;53.502;49.248;2022-12-18T07:50:49;8.27;;;4.53;;
69319;SDS011;56467;53.502;49.248;2022-12-18T07:53:14;8.45;;;4.72;;
69319;SDS011;56467;53.502;49.248;2022-12-18T07:55:41;6.75;;;4.40;;
69319;SDS011;56467;53.502;49.248;2022-12-18T07:58:07;7.75;;;4.50;;
69319;SDS011;56467;53.502;49.248;2022-12-18T08:00:33;8.55;;;4.45;;
69319;SDS011;56467;53.502;49.248;2022-12-18T08:02:59;8.85;;;4.55;;
69319;SDS011;56467;53.502;49.248;2022-12-18T08:05:25;7.72;;;4.53;;
69319;SDS011;56467;53.502;49.248;2022-12-18T08:07:52;7.10;;;4.47;;
69319;SDS011;56467;53.502;49.248;2022-12-18T08:10:18;8.48;;;4.53;;
69319;SDS011;56467;53.502;49.248;2022-12-18T08:12:44;7.03;;;4.50;;
69319;SDS011;56467;53.502;49.248;2022-12-18T08:15:10;7.45;;;4.82;;
69319;SDS011;56467;53.502;49.248;2022-12-18T08:17:36;7.88;;;4.53;;
69319;SDS011;56467;53.502;49.248;2022-12-18T08:20:02;6.80;;;4.45;;
69319;SDS011;56467;53.502;49.248;2022-12-18T08:22:28;9.02;;;4.68;;
69319;SDS011;56467;53.502;49.248;2022-12-18T08:24:54;7.18;;;4.40;;
69319;SDS011;56467;53.502;49.248;2022-12-18T08:27:20;7.78;;;4.65;;
69319;SDS011;56467;53.502;49.248;2022-12-18T08:29:45;6.72;;;4.55;;
69319;SDS011;56467;53.502;49.248;2022-12-18T08:32:11;7.68;;;4.53;;
69319;SDS011;56467;53.502;49.248;2022-12-18T08:34:37;6.80;;;4.50;;
69319;SDS011;56467;53.502;49.248;2022-12-18T08:37:03;9.50;;;5.00;;
69319;SDS011;56467;53.502;49.248;2022-12-18T08:39:29;8.90;;;5.25;;
69319;SDS011;56467;53.502;49.248;2022-12-18T08:41:55;8.55;;;5.22;;
69319;SDS011;56467;53.502;49.248;2022-12-18T08:44:39;8.68;;;4.85;;
69319;SDS011;56467;53.502;49.248;2022-12-18T08:47:05;7.20;;;4.75;;
69319;SDS011;56467;53.502;49.248;2022-12-18T08:49:31;6.93;;;4.65;;
69319;SDS011;56467;53.502;49.248;2022-12-18T08:51:58;7.38;;;5.03;;
69319;SDS011;56467;53.502;49.248;2022-12-18T08:54:24;8.40;;;4.47;;
69319;SDS011;56467;53.502;49.248;2022-12-18T08:56:50;9.30;;;5.18;;
69319;SDS011;56467;53.502;49.248;2022-12-18T08:59:16;6.78;;;4.28;;
69319;SDS011;56467;53.502;49.248;2022-12-18T09:01:43;8.13;;;4.57;;
69319;SDS011;56467;53.502;49.248;2022-12-18T09:04:09;6.95;;;5.00;;
69319;SDS011;56467;53.502;49.248;2022-12-18T09:06:35;6.75;;;4.55;;
69319;SDS011;56467;53.502;49.248;2022-12-18T09:09:02;7.68;;;4.90;;
69319;SDS011;56467;53.502;49.248;2022-12-18T09:11:28;8.23;;;4.75;;
69319;SDS011;56467;53.502;49.248;2022-12-18T09:13:54;8.00;;;4.78;;
69319;SDS011;56467;53.502;49.248;2022-12-18T09:16:20;7.40;;;4.70;;
69319;SDS011;56467;53.502;49.248;2022-12-18T09:18:47;9.18;;;4.95;;
69319;SDS011;56467;53.502;49.248;2022-12-18T09:21:17;7.45;;;4.70;;
69319;SDS011;56467;53.502;49.248;2022-12-18T09:23:48;6.68;;;4.57;;
69319;SDS011;56467;53.502;49.248;2022-12-18T09:26:16;8.05;;;4.43;;
69319;SDS011;56467;53.502;49.248;2022-12-18T09:28:42;8.35;;;4.70;;
69319;SDS011;56467;53.502;49.248;2022-12-18T09:31:08;8.43;;;4.43;;
69319;SDS011;56467;53.502;49.248;2022-12-18T09:33:36;7.55;;;4.55;;
69319;SDS011;56467;53.502;49.248;2022-12-18T09:36:07;8.25;;;4.90;;
69319;SDS011;56467;53.502;49.248;2022-12-18T09:38:34;6.53;;;4.57;;
69319;SDS011;56467;53.502;49.248;2022-12-18T09:45:04;8.13;;;4.53;;
69319;SDS011;56467;53.502;49.248;2022-12-18T09:47:13;6.78;;;4.30;;
69319;SDS011;56467;53.502;49.248;2022-12-18T09:49:45;6.75;;;4.32;;
69319;SDS011;56467;53.502;49.248;2022-12-18T09:52:19;5.63;;;4.00;;
69319;SDS011;56467;53.502;49.248;2022-12-18T09:55:45;7.22;;;4.57;;
69319;SDS011;56467;53.502;49.248;2022-12-18T09:58:05;6.97;;;4.55;;
69319;SDS011;56467;53.502;49.248;2022-12-18T10:00:37;7.32;;;4.45;;
69319;SDS011;56467;53.502;49.248;2022-12-18T10:03:03;7.80;;;4.43;;
69319;SDS011;56467;53.502;49.248;2022-12-18T10:10:57;6.32;;;4.20;;
69319;SDS011;56467;53.502;49.248;2022-12-18T10:13:49;6.15;;;4.20;;
69319;SDS011;56467;53.502;49.248;2022-12-18T10:19:37;6.47;;;4.35;;
69319;SDS011;56467;53.502;49.248;2022-12-18T10:25:19;6.70;;;3.93;;
69319;SDS011;56467;53.502;49.248;2022-12-18T10:28:12;5.60;;;4.30;;
69319;SDS011;56467;53.502;49.248;2022-12-18T10:30:40;5.72;;;4.03;;
69319;SDS011;56467;53.502;49.248;2022-12-18T10:33:11;7.30;;;4.40;;
69319;SDS011;56467;53.502;49.248;2022-12-18T10:35:40;6.77;;;4.30;;
69319;SDS011;56467;53.502;49.248;2022-12-18T10:40:49;6.63;;;4.18;;
69319;SDS011;56467;53.502;49.248;2022-12-18T10:43:51;6.32;;;4.30;;
69319;SDS011;56467;53.502;49.248;2022-12-18T10:48:56;6.68;;;4.20;;
69319;SDS011;56467;53.502;49.248;2022-12-18T10:51:29;5.80;;;3.97;;
69319;SDS011;56467;53.502;49.248;2022-12-18T10:54:05;5.85;;;3.97;;
69319;SDS011;56467;53.502;49.248;2022-12-18T10:56:39;5.80;;;3.88;;
69319;SDS011;56467;53.502;49.248;2022-12-18T10:59:10;6.93;;;4.15;;
69319;SDS011;56467;53.502;49.248;2022-12-18T11:01:50;6.28;;;4.32;;
69319;SDS011;56467;53.502;49.248;2022-12-18T11:04:22;5.15;;;3.67;;
69319;SDS011;56467;53.502;49.248;2022-12-18T11:06:59;6.40;;;3.92;;
69319;SDS011;56467;53.502;49.248;2022-12-18T11:09:26;6.47;;;3.80;;
69319;SDS011;56467;53.502;49.248;2022-12-18T11:11:54;5.47;;;3.50;;
69319;SDS011;56467;53.502;49.248;2022-12-18T11:14:23;5.53;;;3.92;;
69319;SDS011;56467;53.502;49.248;2022-12-18T11:16:50;5.45;;;3.72;;
69319;SDS011;56467;53.502;49.248;2022-12-18T11:21:46;6.38;;;3.80;;
69319;SDS011;56467;53.502;49.248;2022-12-18T11:24:32;5.47;;;3.35;;
69319;SDS011;56467;53.502;49.248;2022-12-18T11:27:20;8.10;;;4.30;;
69319;SDS011;56467;53.502;49.248;2022-12-18T11:29:46;8.68;;;5.30;;
69319;SDS011;56467;53.502;49.248;2022-12-18T11:32:32;13.60;;;7.35;;
69319;SDS011;56467;53.502;49.248;2022-12-18T11:37:47;18.88;;;9.43;;
69319;SDS011;56467;53.502;49.248;2022-12-18T11:40:22;18.80;;;10.43;;
69319;SDS011;56467;53.502;49.248;2022-12-18T11:42:59;19.27;;;10.45;;
69319;SDS011;56467;53.502;49.248;2022-12-18T11:46:23;19.08;;;10.60;;
69319;SDS011;56467;53.502;49.248;2022-12-18T11:51:16;19.77;;;11.05;;
69319;SDS011;56467;53.502;49.248;2022-12-18T11:53:51;21.17;;;11.13;;
69319;SDS011;56467;53.502;49.248;2022-12-18T11:59:15;18.95;;;10.77;;
69319;SDS011;56467;53.502;49.248;2022-12-18T12:02:14;17.95;;;10.15;;
69319;SDS011;56467;53.502;49.248;2022-12-18T12:04:47;18.05;;;10.05;;
69319;SDS011;56467;53.502;49.248;2022-12-18T12:10:02;17.58;;;9.73;;
69319;SDS011;56467;53.502;49.248;2022-12-18T12:15:51;20.92;;;10.60;;
69319;SDS011;56467;53.502;49.248;2022-12-18T12:21:28;15.90;;;9.30;;
69319;SDS011;56467;53.502;49.248;2022-12-18T12:32:07;17.52;;;9.82;;
69319;SDS011;56467;53.502;49.248;2022-12-18T12:37:12;19.20;;;10.85;;
69319;SDS011;56467;53.502;49.248;2022-12-18T12:39:43;21.23;;;11.50;;
69319;SDS011;56467;53.502;49.248;2022-12-18T12:42:14;21.70;;;11.93;;
69319;SDS011;56467;53.502;49.248;2022-12-18T12:45:04;21.55;;;12.02;;
69319;SDS011;56467;53.502;49.248;2022-12-18T12:47:33;23.10;;;12.00;;
69319;SDS011;56467;53.502;49.248;2022-12-18T12:50:03;23.55;;;12.98;;
69319;SDS011;56467;53.502;49.248;2022-12-18T12:55:04;20.73;;;11.82;;
69319;SDS011;56467;53.502;49.248;2022-12-18T12:57:37;21.63;;;12.38;;
69319;SDS011;56467;53.502;49.248;2022-12-18T13:00:09;22.05;;;12.18;;
69319;SDS011;56467;53.502;49.248;2022-12-18T13:05:55;19.38;;;11.38;;
69319;SDS011;56467;53.502;49.248;2022-12-18T13:08:28;21.48;;;11.68;;
69319;SDS011;56467;53.502;49.248;2022-12-18T13:10:57;19.50;;;11.55;;
69319;SDS011;56467;53.502;49.248;2022-12-18T13:13:52;21.13;;;11.18;;
69319;SDS011;56467;53.502;49.248;2022-12-18T13:16:23;19.27;;;10.85;;
69319;SDS011;56467;53.502;49.248;2022-12-18T13:18:50;17.73;;;10.65;;
69319;SDS011;56467;53.502;49.248;2022-12-18T13:21:28;17.30;;;10.15;;
69319;SDS011;56467;53.502;49.248;2022-12-18T13:23:55;17.75;;;10.50;;
69319;SDS011;56467;53.502;49.248;2022-12-18T13:31:14;15.63;;;9.75;;
69319;SDS011;56467;53.502;49.248;2022-12-18T13:34:19;17.10;;;9.98;;
69319;SDS011;56467;53.502;49.248;2022-12-18T13:36:46;17.60;;;9.15;;
69319;SDS011;56467;53.502;49.248;2022-12-18T13:42:37;16.05;;;9.80;;
69319;SDS011;56467;53.502;49.248;2022-12-18T13:44:37;15.15;;;8.73;;
69319;SDS011;56467;53.502;49.248;2022-12-18T13:47:27;17.00;;;9.52;;
69319;SDS011;56467;53.502;49.248;2022-12-18T13:50:09;14.07;;;8.48;;
69319;SDS011;56467;53.502;49.248;2022-12-18T13:52:51;13.30;;;8.27;;
69319;SDS011;56467;53.502;49.248;2022-12-18T13:55:19;15.32;;;8.98;;
69319;SDS011;56467;53.502;49.248;2022-12-18T13:57:46;14.90;;;8.90;;
69319;SDS011;56467;53.502;49.248;2022-12-18T14:00:33;14.13;;;8.38;;
69319;SDS011;56467;53.502;49.248;2022-12-18T14:02:58;14.57;;;8.15;;
69319;SDS011;56467;53.502;49.248;2022-12-18T14:07:51;13.02;;;7.80;;
69319;SDS011;56467;53.502;49.248;2022-12-18T14:10:18;13.60;;;8.07;;
69319;SDS011;56467;53.502;49.248;2022-12-18T14:12:45;13.05;;;7.35;;
69319;SDS011;56467;53.502;49.248;2022-12-18T14:15:24;14.27;;;7.95;;
69319;SDS011;56467;53.502;49.248;2022-12-18T14:17:57;15.88;;;8.93;;
69319;SDS011;56467;53.502;49.248;2022-12-18T14:20:25;16.98;;;9.52;;
69319;SDS011;56467;53.502;49.248;2022-12-18T14:22:53;17.35;;;10.00;;
69319;SDS011;56467;53.502;49.248;2022-12-18T14:25:20;22.58;;;11.18;;
69319;SDS011;56467;53.502;49.248;2022-12-18T14:28:12;22.23;;;11.98;;
69319;SDS011;56467;53.502;49.248;2022-12-18T14:30:38;22.33;;;12.23;;
69319;SDS011;56467;53.502;49.248;2022-12-18T14:33:09;25.17;;;12.88;;
69319;SDS011;56467;53.502;49.248;2022-12-18T14:35:38;24.60;;;13.18;;
69319;SDS011;56467;53.502;49.248;2022-12-18T14:38:21;25.65;;;13.25;;
69319;SDS011;56467;53.502;49.248;2022-12-18T14:40:51;22.70;;;12.90;;
69319;SDS011;56467;53.502;49.248;2022-12-18T14:43:22;25.27;;;12.73;;
69319;SDS011;56467;53.502;49.248;2022-12-18T14:45:48;24.77;;;13.05;;
69319;SDS011;56467;53.502;49.248;2022-12-18T14:48:19;24.48;;;12.50;;
69319;SDS011;56467;53.502;49.248;2022-12-18T14:51:02;22.45;;;12.50;;
69319;SDS011;56467;53.502;49.248;2022-12-18T14:56:01;21.52;;;12.00;;
69319;SDS011;56467;53.502;49.248;2022-12-18T14:58:28;22.77;;;12.30;;
69319;SDS011;56467;53.502;49.248;2022-12-18T15:00:54;21.70;;;12.20;;
69319;SDS011;56467;53.502;49.248;2022-12-18T15:03:20;24.33;;;13.18;;
69319;SDS011;56467;53.502;49.248;2022-12-18T15:05:46;24.58;;;13.00;;
69319;SDS011;56467;53.502;49.248;2022-12-18T15:08:34;25.23;;;13.68;;
69319;SDS011;56467;53.502;49.248;2022-12-18T15:11:02;26.85;;;14.73;;
69319;SDS011;56467;53.502;49.248;2022-12-18T15:13:28;28.08;;;15.52;;
69319;SDS011;56467;53.502;49.248;2022-12-18T15:15:55;31.55;;;16.38;;
69319;SDS011;56467;53.502;49.248;2022-12-18T15:18:28;28.40;;;15.25;;
69319;SDS011;56467;53.502;49.248;2022-12-18T15:20:59;27.23;;;15.30;;
69319;SDS011;56467;53.502;49.248;2022-12-18T15:26:18;28.75;;;15.07;;
69319;SDS011;56467;53.502;49.248;2022-12-18T15:28:47;29.08;;;15.18;;
69319;SDS011;56467;53.502;49.248;2022-12-18T15:31:36;26.58;;;14.82;;
69319;SDS011;56467;53.502;49.248;2022-12-18T15:34:09;25.33;;;14.35;;
69319;SDS011;56467;53.502;49.248;2022-12-18T15:36:43;24.20;;;14.10;;
69319;SDS011;56467;53.502;49.248;2022-12-18T15:39:10;25.73;;;13.70;;
69319;SDS011;56467;53.502;49.248;2022-12-18T15:41:38;24.58;;;13.18;;
69319;SDS011;56467;53.502;49.248;2022-12-18T15:44:23;24.90;;;13.57;;
69319;SDS011;56467;53.502;49.248;2022-12-18T15:46:50;25.63;;;13.55;;
69319;SDS011;56467;53.502;49.248;2022-12-18T15:49:16;22.98;;;13.05;;
69319;SDS011;56467;53.502;49.248;2022-12-18T15:51:42;24.67;;;13.20;;
69319;SDS011;56467;53.502;49.248;2022-12-18T15:54:10;24.13;;;12.80;;
69319;SDS011;56467;53.502;49.248;2022-12-18T15:56:40;22.13;;;12.73;;
69319;SDS011;56467;53.502;49.248;2022-12-18T15:59:25;22.55;;;12.48;;
69319;SDS011;56467;53.502;49.248;2022-12-18T16:01:53;20.05;;;11.75;;
69319;SDS011;56467;53.502;49.248;2022-12-18T16:04:19;24.08;;;11.80;;
69319;SDS011;56467;53.502;49.248;2022-12-18T16:06:47;20.70;;;11.32;;
69319;SDS011;56467;53.502;49.248;2022-12-18T16:09:13;21.17;;;11.52;;
69319;SDS011;56467;53.502;49.248;2022-12-18T16:11:41;18.25;;;10.68;;
69319;SDS011;56467;53.502;49.248;2022-12-18T16:16:37;17.63;;;10.13;;
69319;SDS011;56467;53.502;49.248;2022-12-18T16:19:03;19.23;;;10.32;;
69319;SDS011;56467;53.502;49.248;2022-12-18T16:21:29;19.23;;;10.38;;
69319;SDS011;56467;53.502;49.248;2022-12-18T16:23:56;17.60;;;9.75;;
69319;SDS011;56467;53.502;49.248;2022-12-18T16:26:22;18.02;;;9.82;;